Time;durP1;ratioP1;P1;durP2;ratioP2;P2;SDS_P1;SDS_P2;PMS_P1;PMS_P2;Temp;Humidity;BMP_temperature;BMP_pressure;BME280_temperature;BME280_humidity;BME280_pressure;Samples;Min_cycle;Max_cycle;Signal;HPM_P1;HPM_P2
2022/05/25 00:00:45;;;;;;;1.77;0.60;;;;;;;;;;5013268;28;20101;-58
2022/05/25 00:03:12;;;;;;;0.68;0.50;;;;;;;;;;5013045;28;20034;-58
2022/05/25 00:05:39;;;;;;;1.38;0.40;;;;;;;;;;5012771;28;20042;-57
2022/05/25 00:08:05;;;;;;;0.90;0.50;;;;;;;;;;5011865;28;20422;-58
2022/05/25 00:10:31;;;;;;;0.80;0.50;;;;;;;;;;5012680;28;20026;-58
2022/05/25 00:12:57;;;;;;;2.15;0.70;;;;;;;;;;5012695;28;20403;-57
2022/05/25 00:15:23;;;;;;;0.25;0.25;;;;;;;;;;5012377;28;20467;-58
2022/05/25 00:17:50;;;;;;;1.17;0.77;;;;;;;;;;5012950;28;20037;-58
2022/05/25 00:20:18;;;;;;;0.30;0.30;;;;;;;;;;5011611;28;20025;-58
2022/05/25 00:22:46;;;;;;;1.70;0.43;;;;;;;;;;5012638;28;20045;-58
2022/05/25 00:25:14;;;;;;;0.98;0.60;;;;;;;;;;5011286;28;20103;-57
2022/05/25 00:27:40;;;;;;;0.40;0.40;;;;;;;;;;5012651;28;20126;-58
2022/05/25 00:30:07;;;;;;;0.32;0.30;;;;;;;;;;5011094;28;20111;-58
2022/05/25 00:32:33;;;;;;;1.10;0.35;;;;;;;;;;5012559;28;20034;-57
2022/05/25 00:34:59;;;;;;;0.68;0.40;;;;;;;;;;5011902;28;20105;-57
2022/05/25 00:37:26;;;;;;;1.05;0.40;;;;;;;;;;5011776;28;20111;-57
2022/05/25 00:39:52;;;;;;;0.75;0.60;;;;;;;;;;5012041;28;20018;-57
2022/05/25 00:42:18;;;;;;;0.90;0.50;;;;;;;;;;5011315;28;20452;-57
2022/05/25 00:44:44;;;;;;;0.77;0.40;;;;;;;;;;5012124;28;20117;-56
2022/05/25 00:47:12;;;;;;;0.70;0.40;;;;;;;;;;5010943;28;20049;-57
2022/05/25 00:49:38;;;;;;;0.50;0.30;;;;;;;;;;5012054;28;20040;-59
2022/05/25 00:52:06;;;;;;;0.60;0.47;;;;;;;;;;5011408;28;20462;-56
2022/05/25 00:54:34;;;;;;;0.68;0.40;;;;;;;;;;5011842;28;20057;-57
2022/05/25 00:57:02;;;;;;;1.58;0.50;;;;;;;;;;5011713;28;20018;-57
2022/05/25 00:59:31;;;;;;;2.33;0.40;;;;;;;;;;5011562;28;20582;-58
2022/05/25 01:01:58;;;;;;;0.88;0.45;;;;;;;;;;5011783;28;20053;-58
2022/05/25 01:04:24;;;;;;;1.25;0.45;;;;;;;;;;5010808;28;20845;-57
2022/05/25 01:06:53;;;;;;;0.52;0.35;;;;;;;;;;5011686;28;20083;-57
2022/05/25 01:09:25;;;;;;;0.40;0.30;;;;;;;;;;5011207;28;20070;-58
2022/05/25 01:11:51;;;;;;;1.13;0.60;;;;;;;;;;5012008;28;20036;-58
2022/05/25 01:14:38;;;;;;;1.52;0.50;;;;;;;;;;5010969;28;20034;-57
2022/05/25 01:17:13;;;;;;;0.82;0.50;;;;;;;;;;5011176;28;20034;-57
2022/05/25 01:19:58;;;;;;;0.63;0.40;;;;;;;;;;5011862;28;20064;-57
2022/05/25 01:22:42;;;;;;;0.90;0.73;;;;;;;;;;5006136;28;20025;-58
2022/05/25 01:25:08;;;;;;;1.17;0.45;;;;;;;;;;5010750;28;20073;-57
2022/05/25 01:27:47;;;;;;;1.45;0.80;;;;;;;;;;5010976;28;20046;-56
2022/05/25 01:30:13;;;;;;;0.60;0.45;;;;;;;;;;4992981;28;20371;-56
2022/05/25 01:32:45;;;;;;;1.15;0.47;;;;;;;;;;5011851;28;20036;-58
2022/05/25 01:35:14;;;;;;;0.55;0.38;;;;;;;;;;5010517;28;20026;-57
2022/05/25 01:37:40;;;;;;;0.40;0.40;;;;;;;;;;5011532;28;20034;-57
2022/05/25 01:40:22;;;;;;;0.32;0.32;;;;;;;;;;5011682;28;20092;-57
2022/05/25 01:42:52;;;;;;;1.00;0.60;;;;;;;;;;5015422;28;20440;-57
2022/05/25 01:45:19;;;;;;;0.55;0.38;;;;;;;;;;5014428;28;20057;-55
2022/05/25 01:47:47;;;;;;;3.33;0.50;;;;;;;;;;5015385;28;20037;-56
2022/05/25 01:50:25;;;;;;;0.85;0.40;;;;;;;;;;5014782;28;20026;-57
2022/05/25 01:52:55;;;;;;;0.57;0.40;;;;;;;;;;5014994;28;20034;-57
2022/05/25 01:55:33;;;;;;;1.95;0.95;;;;;;;;;;5006948;28;20042;-56
2022/05/25 01:58:02;;;;;;;2.03;0.50;;;;;;;;;;5013923;28;20109;-57
2022/05/25 02:00:38;;;;;;;1.10;0.50;;;;;;;;;;5014883;28;20022;-58
2022/05/25 02:06:08;;;;;;;0.30;0.30;;;;;;;;;;5014914;28;20037;-56
2022/05/25 02:08:34;;;;;;;1.00;0.63;;;;;;;;;;5008751;28;20030;-57
2022/05/25 02:11:11;;;;;;;0.73;0.30;;;;;;;;;;5014272;28;20360;-58
2022/05/25 02:14:01;;;;;;;2.95;0.60;;;;;;;;;;5009461;28;20022;-58
2022/05/25 02:16:27;;;;;;;1.75;0.63;;;;;;;;;;5013280;28;20048;-58
2022/05/25 02:19:02;;;;;;;0.40;0.30;;;;;;;;;;5014824;28;20022;-58
2022/05/25 02:21:32;;;;;;;0.70;0.40;;;;;;;;;;5013768;28;20038;-58
2022/05/25 02:24:04;;;;;;;1.13;0.30;;;;;;;;;;5008631;28;20025;-58
2022/05/25 02:26:41;;;;;;;2.00;0.30;;;;;;;;;;5013856;28;20056;-58
2022/05/25 02:29:07;;;;;;;2.25;0.50;;;;;;;;;;5014124;28;20034;-58
2022/05/25 02:31:38;;;;;;;1.67;0.35;;;;;;;;;;5014399;28;20033;-58
2022/05/25 02:34:06;;;;;;;0.98;0.63;;;;;;;;;;5014930;28;20022;-58
2022/05/25 02:36:34;;;;;;;0.63;0.30;;;;;;;;;;5013725;28;20030;-58
2022/05/25 02:39:03;;;;;;;3.17;1.10;;;;;;;;;;5014592;28;20033;-58
2022/05/25 02:41:30;;;;;;;0.47;0.30;;;;;;;;;;5013423;28;20054;-58
2022/05/25 02:43:57;;;;;;;0.50;0.40;;;;;;;;;;5014278;28;20076;-55
2022/05/25 02:46:23;;;;;;;3.30;0.50;;;;;;;;;;5013396;28;20462;-58
2022/05/25 02:48:49;;;;;;;0.55;0.30;;;;;;;;;;5014557;28;20034;-58
2022/05/25 02:51:15;;;;;;;3.88;0.90;;;;;;;;;;5013134;28;20084;-58
2022/05/25 02:53:41;;;;;;;0.50;0.20;;;;;;;;;;5014306;28;20033;-58
2022/05/25 02:56:07;;;;;;;1.75;0.35;;;;;;;;;;5014739;28;20026;-57
2022/05/25 02:58:34;;;;;;;1.33;0.40;;;;;;;;;;5014345;28;20056;-57
2022/05/25 03:01:00;;;;;;;0.30;0.30;;;;;;;;;;5013734;28;20029;-58
2022/05/25 03:03:28;;;;;;;1.58;0.30;;;;;;;;;;5013383;28;20033;-57
2022/05/25 03:05:54;;;;;;;0.57;0.30;;;;;;;;;;5013912;28;20026;-58
2022/05/25 03:08:20;;;;;;;0.50;0.40;;;;;;;;;;5013216;28;20030;-57
2022/05/25 03:10:47;;;;;;;0.57;0.40;;;;;;;;;;5013878;28;20493;-58
2022/05/25 03:13:13;;;;;;;0.40;0.40;;;;;;;;;;5013293;28;20033;-58
2022/05/25 03:15:39;;;;;;;0.98;0.47;;;;;;;;;;5014183;28;20026;-58
2022/05/25 03:18:05;;;;;;;1.70;0.60;;;;;;;;;;5013550;28;20406;-58
2022/05/25 03:20:31;;;;;;;1.90;0.30;;;;;;;;;;5013054;28;20072;-58
2022/05/25 03:22:57;;;;;;;0.70;0.40;;;;;;;;;;5013222;28;20365;-58
2022/05/25 03:25:23;;;;;;;1.40;0.40;;;;;;;;;;5012895;28;20032;-55
2022/05/25 03:27:50;;;;;;;0.35;0.32;;;;;;;;;;5013700;28;20438;-57
2022/05/25 03:30:16;;;;;;;0.32;0.30;;;;;;;;;;5012442;28;20096;-55
2022/05/25 03:32:42;;;;;;;0.65;0.40;;;;;;;;;;5013533;28;20041;-56
2022/05/25 03:35:12;;;;;;;1.30;0.40;;;;;;;;;;5013228;28;20434;-55
2022/05/25 03:37:38;;;;;;;1.42;0.47;;;;;;;;;;5013360;28;20034;-56
2022/05/25 03:40:05;;;;;;;1.55;0.30;;;;;;;;;;5013339;28;20053;-56
2022/05/25 03:42:31;;;;;;;1.85;0.40;;;;;;;;;;5012605;28;20026;-58
2022/05/25 03:44:57;;;;;;;0.45;0.40;;;;;;;;;;5012623;28;20034;-57
2022/05/25 03:47:23;;;;;;;1.38;0.43;;;;;;;;;;5011804;28;20029;-57
2022/05/25 03:49:49;;;;;;;1.27;0.43;;;;;;;;;;5013063;28;20034;-57
2022/05/25 03:52:19;;;;;;;0.98;0.28;;;;;;;;;;5012273;28;20101;-57
2022/05/25 03:54:45;;;;;;;1.63;1.00;;;;;;;;;;5012883;28;20038;-57
2022/05/25 03:57:11;;;;;;;0.40;0.40;;;;;;;;;;5012923;28;20545;-57
2022/05/25 03:59:37;;;;;;;0.45;0.30;;;;;;;;;;5013107;28;20026;-58
2022/05/25 04:02:04;;;;;;;0.65;0.40;;;;;;;;;;5013374;28;20022;-58
2022/05/25 04:04:30;;;;;;;1.85;0.50;;;;;;;;;;5011569;28;20110;-58
2022/05/25 04:06:56;;;;;;;0.45;0.30;;;;;;;;;;5012660;28;20124;-58
2022/05/25 04:09:22;;;;;;;1.17;0.38;;;;;;;;;;5011683;28;20041;-58
2022/05/25 04:11:48;;;;;;;2.45;0.35;;;;;;;;;;4995521;28;20026;-58
2022/05/25 04:14:15;;;;;;;0.70;0.40;;;;;;;;;;5012180;28;20045;-58
2022/05/25 04:16:42;;;;;;;0.40;0.32;;;;;;;;;;5012306;28;20105;-57
2022/05/25 04:19:08;;;;;;;0.47;0.40;;;;;;;;;;5012451;28;20487;-58
2022/05/25 04:21:34;;;;;;;2.22;0.40;;;;;;;;;;5011584;28;20057;-58
2022/05/25 04:24:00;;;;;;;0.63;0.35;;;;;;;;;;5012407;28;20034;-57
2022/05/25 04:26:28;;;;;;;0.80;0.50;;;;;;;;;;5011577;28;20038;-57
2022/05/25 04:28:54;;;;;;;1.52;0.40;;;;;;;;;;5012564;28;20041;-56
2022/05/25 04:31:20;;;;;;;2.22;0.55;;;;;;;;;;5011800;28;20108;-57
2022/05/25 04:33:46;;;;;;;1.52;0.40;;;;;;;;;;5012405;28;20117;-56
2022/05/25 04:36:12;;;;;;;0.98;0.43;;;;;;;;;;5011995;28;20026;-57
2022/05/25 04:38:38;;;;;;;0.98;0.50;;;;;;;;;;5011970;28;20041;-57
2022/05/25 04:41:04;;;;;;;0.73;0.40;;;;;;;;;;5012263;28;20030;-57
2022/05/25 04:43:30;;;;;;;1.58;0.73;;;;;;;;;;5011619;28;20030;-57
2022/05/25 04:45:59;;;;;;;0.50;0.30;;;;;;;;;;5011539;28;20149;-57
2022/05/25 04:48:25;;;;;;;1.05;0.50;;;;;;;;;;5011535;28;20033;-56
2022/05/25 04:50:51;;;;;;;1.77;0.60;;;;;;;;;;5011896;28;20026;-58
2022/05/25 04:53:19;;;;;;;0.57;0.35;;;;;;;;;;5011450;28;20030;-56
2022/05/25 04:58:31;;;;;;;0.93;0.50;;;;;;;;;;5010706;28;20402;-56
2022/05/25 05:00:57;;;;;;;0.88;0.65;;;;;;;;;;5011883;28;20352;-51
2022/05/25 05:03:24;;;;;;;0.77;0.55;;;;;;;;;;5011189;28;20033;-57
2022/05/25 05:05:51;;;;;;;1.23;0.63;;;;;;;;;;5011654;28;20042;-54
2022/05/25 05:08:17;;;;;;;2.05;0.40;;;;;;;;;;5010896;28;20033;-57
2022/05/25 05:10:43;;;;;;;0.50;0.40;;;;;;;;;;5012049;28;20026;-53
2022/05/25 05:13:10;;;;;;;0.73;0.60;;;;;;;;;;4994132;28;20109;-52
2022/05/25 05:15:36;;;;;;;0.85;0.65;;;;;;;;;;5010295;28;20659;-51
2022/05/25 05:18:03;;;;;;;2.45;1.02;;;;;;;;;;5011678;28;20084;-52
2022/05/25 05:20:30;;;;;;;2.50;0.68;;;;;;;;;;5010873;28;20446;-53
2022/05/25 05:22:56;;;;;;;0.50;0.47;;;;;;;;;;5011662;28;20380;-54
2022/05/25 05:25:22;;;;;;;1.00;0.43;;;;;;;;;;5010962;28;20038;-57
2022/05/25 05:27:48;;;;;;;1.85;0.63;;;;;;;;;;5011758;28;20112;-58
2022/05/25 05:30:17;;;;;;;1.23;0.57;;;;;;;;;;5011039;28;20024;-58
2022/05/25 05:32:43;;;;;;;1.83;0.60;;;;;;;;;;5009235;28;20048;-56
2022/05/25 05:35:10;;;;;;;1.27;0.75;;;;;;;;;;5011632;28;20034;-50
2022/05/25 05:37:41;;;;;;;4.18;0.63;;;;;;;;;;5010831;28;20585;-54
2022/05/25 05:40:09;;;;;;;1.10;0.50;;;;;;;;;;5010753;28;20038;-57
2022/05/25 05:42:40;;;;;;;0.63;0.40;;;;;;;;;;5009907;28;20106;-55
2022/05/25 05:45:08;;;;;;;0.80;0.52;;;;;;;;;;5010754;28;20459;-51
2022/05/25 05:47:37;;;;;;;0.77;0.70;;;;;;;;;;5008085;28;20018;-51
2022/05/25 05:50:05;;;;;;;3.55;0.70;;;;;;;;;;5011533;28;20026;-50
2022/05/25 05:52:31;;;;;;;3.60;0.60;;;;;;;;;;5010569;28;20064;-52
2022/05/25 05:54:57;;;;;;;0.77;0.43;;;;;;;;;;5011443;28;20034;-49
2022/05/25 05:57:25;;;;;;;0.90;0.30;;;;;;;;;;5010771;28;20026;-51
2022/05/25 05:59:51;;;;;;;1.40;0.47;;;;;;;;;;5011281;28;20017;-51
2022/05/25 06:02:17;;;;;;;0.70;0.40;;;;;;;;;;5010282;28;20032;-55
2022/05/25 06:04:42;;;;;;;1.42;0.60;;;;;;;;;;5010646;28;20026;-50
2022/05/25 06:07:08;;;;;;;1.23;0.50;;;;;;;;;;5010931;28;20412;-52
2022/05/25 06:09:34;;;;;;;1.60;0.40;;;;;;;;;;5010352;28;20133;-51
2022/05/25 06:12:00;;;;;;;1.33;0.43;;;;;;;;;;5011147;28;20386;-51
2022/05/25 06:14:26;;;;;;;5.72;0.50;;;;;;;;;;5003020;28;20069;-50
2022/05/25 06:19:38;;;;;;;3.10;0.70;;;;;;;;;;5009302;28;20102;-51
2022/05/25 06:22:09;;;;;;;1.52;0.70;;;;;;;;;;5010671;28;20022;-50
2022/05/25 06:24:37;;;;;;;0.52;0.52;;;;;;;;;;5009826;28;20131;-48
2022/05/25 06:27:04;;;;;;;0.95;0.60;;;;;;;;;;5012560;28;20025;-49
2022/05/25 06:29:31;;;;;;;1.38;0.68;;;;;;;;;;5013460;28;20018;-49
2022/05/25 06:31:57;;;;;;;1.75;0.60;;;;;;;;;;5014276;28;20036;-51
2022/05/25 06:34:23;;;;;;;1.27;0.60;;;;;;;;;;5013363;28;20022;-50
2022/05/25 06:36:49;;;;;;;1.30;0.75;;;;;;;;;;5014255;28;20022;-50
2022/05/25 06:39:15;;;;;;;2.47;0.60;;;;;;;;;;5013719;28;20029;-49
2022/05/25 06:41:41;;;;;;;0.73;0.55;;;;;;;;;;5012944;28;20360;-50
2022/05/25 06:44:07;;;;;;;2.10;0.60;;;;;;;;;;5013561;28;20092;-49
2022/05/25 06:46:33;;;;;;;0.60;0.40;;;;;;;;;;5012954;28;20096;-51
2022/05/25 06:48:59;;;;;;;4.43;0.93;;;;;;;;;;5014267;28;20418;-49
2022/05/25 06:51:29;;;;;;;1.33;0.80;;;;;;;;;;5013365;28;20030;-50
2022/05/25 06:53:56;;;;;;;2.28;0.60;;;;;;;;;;5014029;28;20036;-50
2022/05/25 06:56:24;;;;;;;1.13;0.60;;;;;;;;;;5013188;28;20479;-51
2022/05/25 06:58:50;;;;;;;3.05;0.73;;;;;;;;;;5014433;28;20375;-49
2022/05/25 07:01:16;;;;;;;1.55;0.57;;;;;;;;;;5014076;28;20037;-49
2022/05/25 07:03:42;;;;;;;1.00;0.50;;;;;;;;;;5013103;28;20072;-50
2022/05/25 07:06:10;;;;;;;2.45;0.80;;;;;;;;;;5013636;28;20132;-49
2022/05/25 07:08:36;;;;;;;1.77;0.57;;;;;;;;;;5013494;28;20105;-49
2022/05/25 07:11:02;;;;;;;2.80;0.70;;;;;;;;;;5014084;28;20022;-53
2022/05/25 07:13:30;;;;;;;0.50;0.50;;;;;;;;;;5009106;28;20076;-49
2022/05/25 07:16:00;;;;;;;0.80;0.43;;;;;;;;;;5009892;28;20088;-50
2022/05/25 07:18:26;;;;;;;1.95;0.55;;;;;;;;;;5013064;28;20092;-51
2022/05/25 07:20:52;;;;;;;2.55;0.82;;;;;;;;;;5013980;28;20030;-49
2022/05/25 07:23:19;;;;;;;1.60;0.60;;;;;;;;;;5013578;28;20399;-50
2022/05/25 07:25:46;;;;;;;2.65;0.98;;;;;;;;;;5012896;28;20034;-49
2022/05/25 07:28:12;;;;;;;1.38;0.75;;;;;;;;;;5013579;28;20093;-50
2022/05/25 07:30:38;;;;;;;1.70;0.70;;;;;;;;;;5011522;28;20108;-51
2022/05/25 07:33:05;;;;;;;1.13;0.50;;;;;;;;;;5012338;28;20112;-50
2022/05/25 07:35:31;;;;;;;2.17;0.52;;;;;;;;;;5012635;28;20025;-48
2022/05/25 07:37:58;;;;;;;2.13;0.45;;;;;;;;;;5012110;28;20017;-50
2022/05/25 07:40:27;;;;;;;0.82;0.60;;;;;;;;;;5012505;28;20108;-49
2022/05/25 07:42:56;;;;;;;0.80;0.40;;;;;;;;;;5007647;28;20113;-49
2022/05/25 07:45:23;;;;;;;1.27;0.55;;;;;;;;;;4990240;28;20412;-52
2022/05/25 07:47:51;;;;;;;2.28;0.65;;;;;;;;;;4989600;28;20081;-49
2022/05/25 07:50:17;;;;;;;2.20;0.50;;;;;;;;;;4991684;28;20061;-50
2022/05/25 07:52:43;;;;;;;0.88;0.52;;;;;;;;;;4988429;28;20030;-49
2022/05/25 07:55:11;;;;;;;0.60;0.55;;;;;;;;;;4992565;28;20041;-50
2022/05/25 07:57:38;;;;;;;2.88;0.70;;;;;;;;;;4985455;28;20026;-50
2022/05/25 08:00:04;;;;;;;1.55;0.70;;;;;;;;;;4993411;28;20026;-50
2022/05/25 08:08:05;;;;;;;1.52;0.68;;;;;;;;;;4993214;28;20033;-49
2022/05/25 08:10:32;;;;;;;1.52;0.75;;;;;;;;;;4991855;28;20054;-53
2022/05/25 08:12:58;;;;;;;2.58;0.50;;;;;;;;;;4991754;28;20022;-54
2022/05/25 08:15:26;;;;;;;1.73;0.50;;;;;;;;;;4991744;28;20027;-51
2022/05/25 08:17:52;;;;;;;0.80;0.40;;;;;;;;;;4992289;28;20118;-52
2022/05/25 08:20:19;;;;;;;1.90;0.50;;;;;;;;;;4992701;28;20105;-52
2022/05/25 08:22:45;;;;;;;1.00;0.43;;;;;;;;;;4992053;28;20026;-50
2022/05/25 08:25:12;;;;;;;1.60;0.32;;;;;;;;;;4984851;28;20077;-54
2022/05/25 08:27:39;;;;;;;0.45;0.32;;;;;;;;;;4991842;28;20030;-50
2022/05/25 08:30:05;;;;;;;0.50;0.40;;;;;;;;;;4992823;28;20057;-53
2022/05/25 08:32:31;;;;;;;5.07;0.40;;;;;;;;;;4991617;28;20495;-52
2022/05/25 08:34:57;;;;;;;1.83;0.50;;;;;;;;;;4992495;28;20060;-51
2022/05/25 08:37:23;;;;;;;2.05;0.40;;;;;;;;;;4991975;28;20042;-49
2022/05/25 08:39:49;;;;;;;2.17;0.75;;;;;;;;;;4992177;28;20030;-50
2022/05/25 08:42:18;;;;;;;1.73;0.60;;;;;;;;;;4992413;28;20022;-51
2022/05/25 08:44:45;;;;;;;2.92;0.57;;;;;;;;;;4991808;28;20027;-49
2022/05/25 08:47:12;;;;;;;2.35;0.70;;;;;;;;;;5011264;28;20046;-48
2022/05/25 08:49:40;;;;;;;0.93;0.60;;;;;;;;;;5010995;28;20029;-49
2022/05/25 08:52:17;;;;;;;2.85;0.60;;;;;;;;;;5011656;28;20041;-50
2022/05/25 08:54:43;;;;;;;2.63;0.85;;;;;;;;;;5011559;28;20026;-49
2022/05/25 08:57:14;;;;;;;0.93;0.50;;;;;;;;;;5011901;28;20026;-48
2022/05/25 08:59:43;;;;;;;1.17;0.73;;;;;;;;;;5011502;28;20048;-49
2022/05/25 09:02:18;;;;;;;0.82;0.60;;;;;;;;;;5003970;28;20033;-50
2022/05/25 09:04:53;;;;;;;0.60;0.45;;;;;;;;;;5011135;28;20475;-49
2022/05/25 09:07:24;;;;;;;1.25;0.35;;;;;;;;;;5011746;28;20024;-48
2022/05/25 09:09:51;;;;;;;0.90;0.50;;;;;;;;;;5012298;28;20022;-50
2022/05/25 09:12:33;;;;;;;1.23;0.50;;;;;;;;;;5011923;28;20088;-48
2022/05/25 09:15:04;;;;;;;1.80;0.50;;;;;;;;;;5012432;28;20053;-49
2022/05/25 09:17:30;;;;;;;2.15;0.57;;;;;;;;;;5010905;28;20372;-49
2022/05/25 09:19:56;;;;;;;1.90;0.60;;;;;;;;;;5011798;28;20025;-49
2022/05/25 09:22:24;;;;;;;1.50;0.60;;;;;;;;;;5011679;28;20467;-48
2022/05/25 09:24:51;;;;;;;0.73;0.50;;;;;;;;;;5011199;28;20086;-51
2022/05/25 09:27:19;;;;;;;2.53;1.08;;;;;;;;;;5011778;28;20471;-50
2022/05/25 09:29:45;;;;;;;0.68;0.50;;;;;;;;;;5011206;28;20106;-48
2022/05/25 09:32:11;;;;;;;0.70;0.40;;;;;;;;;;5011791;28;20451;-48
2022/05/25 09:34:56;;;;;;;3.67;0.77;;;;;;;;;;5010935;28;20030;-49
2022/05/25 09:37:33;;;;;;;1.17;0.60;;;;;;;;;;5011387;28;20045;-49
2022/05/25 09:40:01;;;;;;;1.17;0.52;;;;;;;;;;5011494;28;20037;-48
2022/05/25 09:42:32;;;;;;;1.77;0.55;;;;;;;;;;5010644;28;20026;-50
2022/05/25 09:45:00;;;;;;;1.47;0.60;;;;;;;;;;5006936;28;20042;-52
2022/05/25 09:47:29;;;;;;;1.38;0.50;;;;;;;;;;5008418;28;20347;-52
2022/05/25 09:49:57;;;;;;;2.63;0.70;;;;;;;;;;5013110;28;20088;-50
2022/05/25 09:52:28;;;;;;;2.10;0.50;;;;;;;;;;5011264;28;20117;-49
2022/05/25 09:54:58;;;;;;;1.23;0.55;;;;;;;;;;5011484;28;20037;-49
2022/05/25 09:57:39;;;;;;;0.80;0.45;;;;;;;;;;5011059;28;20034;-52
2022/05/25 10:00:38;;;;;;;1.10;0.55;;;;;;;;;;5011525;28;20018;-49
2022/05/25 10:03:10;;;;;;;1.27;0.38;;;;;;;;;;5014389;28;20026;-49
2022/05/25 10:05:51;;;;;;;2.78;0.60;;;;;;;;;;5013623;28;20064;-52
2022/05/25 10:08:26;;;;;;;4.83;0.63;;;;;;;;;;5013962;28;20598;-53
2022/05/25 10:10:56;;;;;;;1.83;0.43;;;;;;;;;;5013240;28;20045;-55
2022/05/25 10:13:25;;;;;;;14.50;2.35;;;;;;;;;;5012131;28;20029;-52
2022/05/25 10:15:52;;;;;;;3.03;0.80;;;;;;;;;;5014001;28;20490;-54
2022/05/25 10:18:38;;;;;;;3.17;1.20;;;;;;;;;;5014948;28;20497;-52
2022/05/25 10:21:07;;;;;;;2.92;0.52;;;;;;;;;;5014480;28;20029;-50
2022/05/25 10:23:33;;;;;;;5.13;0.80;;;;;;;;;;5013437;28;20038;-48
2022/05/25 10:26:20;;;;;;;2.10;0.60;;;;;;;;;;5006080;28;20034;-49
2022/05/25 10:28:48;;;;;;;2.17;0.68;;;;;;;;;;5006470;28;20081;-48
2022/05/25 10:37:09;;;;;;;1.05;0.50;;;;;;;;;;5014232;28;20055;-49
2022/05/25 10:39:48;;;;;;;0.82;0.52;;;;;;;;;;5012988;28;20090;-48
2022/05/25 10:42:17;;;;;;;2.25;0.43;;;;;;;;;;5014309;28;20479;-52
2022/05/25 10:45:02;;;;;;;2.42;0.80;;;;;;;;;;5013533;28;20521;-52
2022/05/25 10:47:30;;;;;;;0.98;0.50;;;;;;;;;;5013561;28;20049;-52
2022/05/25 10:49:56;;;;;;;3.10;0.70;;;;;;;;;;5014465;28;20022;-50
2022/05/25 10:52:32;;;;;;;2.35;0.63;;;;;;;;;;5014038;28;20434;-47
2022/05/25 10:54:58;;;;;;;1.23;0.63;;;;;;;;;;5014035;28;20025;-49
2022/05/25 10:57:37;;;;;;;2.35;0.60;;;;;;;;;;5014346;28;20648;-48
2022/05/25 11:00:06;;;;;;;1.90;0.82;;;;;;;;;;5014015;28;20109;-53
2022/05/25 11:02:48;;;;;;;1.52;0.80;;;;;;;;;;5013110;28;20542;-50
2022/05/25 11:05:23;;;;;;;1.60;1.02;;;;;;;;;;5013417;28;20034;-51
2022/05/25 11:07:52;;;;;;;1.73;0.65;;;;;;;;;;5012970;28;20702;-49
2022/05/25 11:10:27;;;;;;;1.27;0.60;;;;;;;;;;5013277;28;20084;-48
2022/05/25 11:13:14;;;;;;;2.13;0.70;;;;;;;;;;5011987;28;20037;-53
2022/05/25 11:15:54;;;;;;;0.98;0.68;;;;;;;;;;5012600;28;20040;-47
2022/05/25 11:18:43;;;;;;;2.22;0.60;;;;;;;;;;5013800;28;20495;-49
2022/05/25 11:21:22;;;;;;;2.88;0.75;;;;;;;;;;5007818;28;20513;-45
2022/05/25 11:23:51;;;;;;;1.75;0.70;;;;;;;;;;5012627;28;20061;-45
2022/05/25 11:26:17;;;;;;;2.85;0.70;;;;;;;;;;5013385;28;20061;-46
2022/05/25 11:28:46;;;;;;;2.33;0.50;;;;;;;;;;5012528;28;20026;-47
2022/05/25 11:31:31;;;;;;;1.17;0.60;;;;;;;;;;5013445;28;20022;-46
2022/05/25 11:34:16;;;;;;;0.57;0.40;;;;;;;;;;5013477;28;20030;-47
2022/05/25 11:37:01;;;;;;;1.75;0.75;;;;;;;;;;5012324;28;20541;-46
2022/05/25 11:39:45;;;;;;;0.82;0.60;;;;;;;;;;5012921;28;20084;-46
2022/05/25 11:42:22;;;;;;;1.20;0.50;;;;;;;;;;5005442;28;20040;-55
2022/05/25 11:44:50;;;;;;;1.88;0.50;;;;;;;;;;5012423;28;20030;-47
2022/05/25 11:47:16;;;;;;;0.93;0.50;;;;;;;;;;5012649;28;20137;-42
2022/05/25 11:49:46;;;;;;;1.65;0.52;;;;;;;;;;5012622;28;20466;-44
2022/05/25 11:52:31;;;;;;;2.58;0.40;;;;;;;;;;5013120;28;20526;-46
2022/05/25 11:55:00;;;;;;;1.45;0.45;;;;;;;;;;5012386;28;20028;-46
2022/05/25 11:57:41;;;;;;;1.67;0.63;;;;;;;;;;5012940;28;20056;-43
2022/05/25 12:00:10;;;;;;;2.33;0.50;;;;;;;;;;5012613;28;20419;-48
2022/05/25 12:02:39;;;;;;;3.17;0.50;;;;;;;;;;5012221;28;20021;-48
2022/05/25 12:05:28;;;;;;;1.75;0.50;;;;;;;;;;5012868;28;20407;-46
2022/05/25 12:08:13;;;;;;;3.60;0.70;;;;;;;;;;5012499;28;20033;-46
2022/05/25 12:10:43;;;;;;;1.25;0.60;;;;;;;;;;5011557;28;20026;-46
2022/05/25 12:13:28;;;;;;;0.70;0.60;;;;;;;;;;5012774;28;20120;-44
2022/05/25 12:16:00;;;;;;;1.02;0.60;;;;;;;;;;5011982;28;20057;-48
2022/05/25 12:18:33;;;;;;;1.00;0.60;;;;;;;;;;5012859;28;20037;-44
2022/05/25 12:20:59;;;;;;;1.30;0.50;;;;;;;;;;5012737;28;20463;-45
2022/05/25 12:23:30;;;;;;;2.15;0.55;;;;;;;;;;5012321;28;20041;-44
2022/05/25 12:26:00;;;;;;;3.33;0.60;;;;;;;;;;5011600;28;20042;-42
2022/05/25 12:28:29;;;;;;;1.17;0.73;;;;;;;;;;5012616;28;20030;-46
2022/05/25 12:31:00;;;;;;;0.55;0.50;;;;;;;;;;5011914;28;20025;-45
2022/05/25 12:33:27;;;;;;;2.58;0.40;;;;;;;;;;5012341;28;20065;-47
2022/05/25 12:35:53;;;;;;;5.25;0.70;;;;;;;;;;5011696;28;20068;-44
2022/05/25 12:38:21;;;;;;;1.27;0.40;;;;;;;;;;5012453;28;20044;-44
2022/05/25 12:40:51;;;;;;;2.60;0.40;;;;;;;;;;5010505;28;20021;-45
2022/05/25 12:43:37;;;;;;;1.15;0.50;;;;;;;;;;5011615;28;20022;-45
2022/05/25 12:49:02;;;;;;;0.85;0.40;;;;;;;;;;5011390;28;20087;-46
2022/05/25 12:51:28;;;;;;;0.75;0.40;;;;;;;;;;5011197;28;20106;-45
2022/05/25 12:53:54;;;;;;;0.30;0.30;;;;;;;;;;5011206;28;20096;-47
2022/05/25 12:56:21;;;;;;;2.20;0.57;;;;;;;;;;5012024;28;20068;-46
2022/05/25 12:58:53;;;;;;;1.63;0.50;;;;;;;;;;5011128;28;20540;-44
2022/05/25 13:01:28;;;;;;;0.50;0.40;;;;;;;;;;5011733;28;20406;-47
2022/05/25 13:03:57;;;;;;;3.22;0.40;;;;;;;;;;5003492;28;20113;-46
2022/05/25 13:06:23;;;;;;;1.65;0.60;;;;;;;;;;5011807;28;20084;-47
2022/05/25 13:08:53;;;;;;;0.40;0.40;;;;;;;;;;5011124;28;20057;-48
2022/05/25 13:11:38;;;;;;;0.82;0.52;;;;;;;;;;5011628;28;20022;-45
2022/05/25 13:14:16;;;;;;;0.88;0.63;;;;;;;;;;5011738;28;20030;-45
2022/05/25 13:16:46;;;;;;;1.88;0.43;;;;;;;;;;5009965;28;20034;-46
2022/05/25 13:19:17;;;;;;;0.40;0.30;;;;;;;;;;5011792;28;20018;-45
2022/05/25 13:22:04;;;;;;;1.90;0.50;;;;;;;;;;5010699;28;20033;-42
2022/05/25 13:24:50;;;;;;;0.50;0.50;;;;;;;;;;5004569;28;20507;-45
2022/05/25 13:27:16;;;;;;;0.80;0.65;;;;;;;;;;5011516;28;20046;-43
2022/05/25 13:30:03;;;;;;;0.30;0.30;;;;;;;;;;4993390;28;20025;-45
2022/05/25 13:32:48;;;;;;;1.48;0.30;;;;;;;;;;5011494;28;20049;-46
2022/05/25 13:35:20;;;;;;;0.80;0.68;;;;;;;;;;5011603;28;20033;-46
2022/05/25 13:37:46;;;;;;;;;;;;;;;;;;5014757;28;20076;-46
2022/05/25 13:40:12;;;;;;;2.58;0.52;;;;;;;;;;5015513;28;20363;-47
2022/05/25 13:42:43;;;;;;;1.23;0.38;;;;;;;;;;5014574;28;20128;-45
2022/05/25 13:45:13;;;;;;;1.02;0.55;;;;;;;;;;5014984;28;20483;-47
2022/05/25 13:47:50;;;;;;;2.97;0.70;;;;;;;;;;4997181;28;20434;-46
2022/05/25 13:50:28;;;;;;;4.20;0.60;;;;;;;;;;5015243;28;20029;-46
2022/05/25 13:52:54;;;;;;;5.60;0.70;;;;;;;;;;5014628;28;20021;-48
2022/05/25 13:55:25;;;;;;;5.85;1.27;;;;;;;;;;5015266;28;20041;-46
2022/05/25 13:57:52;;;;;;;5.28;0.60;;;;;;;;;;5014100;28;20057;-45
2022/05/25 14:00:27;;;;;;;1.48;0.85;;;;;;;;;;5015044;28;20030;-45
2022/05/25 14:02:54;;;;;;;1.23;0.43;;;;;;;;;;5014358;28;20030;-44
2022/05/25 14:05:26;;;;;;;0.60;0.50;;;;;;;;;;5014866;28;20471;-45
2022/05/25 14:07:52;;;;;;;9.27;0.70;;;;;;;;;;5007362;28;20087;-44
2022/05/25 14:13:15;;;;;;;1.02;0.40;;;;;;;;;;5015144;28;20104;-45
2022/05/25 14:15:44;;;;;;;1.20;0.35;;;;;;;;;;5014453;28;20491;-44
2022/05/25 14:18:13;;;;;;;0.85;0.45;;;;;;;;;;4997273;28;20034;-44
2022/05/25 14:20:39;;;;;;;1.42;0.60;;;;;;;;;;5014142;28;20034;-45
2022/05/25 14:23:08;;;;;;;0.80;0.40;;;;;;;;;;5015235;28;20484;-44
2022/05/25 14:25:35;;;;;;;0.40;0.32;;;;;;;;;;5014808;28;20029;-45
2022/05/25 14:28:01;;;;;;;1.85;0.47;;;;;;;;;;5014519;28;20030;-44
2022/05/25 14:30:29;;;;;;;3.03;0.50;;;;;;;;;;5015047;28;20032;-45
2022/05/25 14:32:57;;;;;;;2.45;0.52;;;;;;;;;;5013826;28;20018;-46
2022/05/25 14:35:24;;;;;;;0.40;0.40;;;;;;;;;;5007090;28;20116;-45
2022/05/25 14:37:50;;;;;;;0.73;0.40;;;;;;;;;;5013926;28;20026;-44
2022/05/25 14:40:18;;;;;;;1.05;0.70;;;;;;;;;;4997016;28;20475;-45
2022/05/25 14:42:51;;;;;;;0.52;0.38;;;;;;;;;;5013780;28;20029;-45
2022/05/25 14:45:17;;;;;;;0.45;0.40;;;;;;;;;;5013393;28;20078;-45
2022/05/25 14:47:57;;;;;;;1.40;0.40;;;;;;;;;;5013224;28;20044;-45
2022/05/25 14:50:29;;;;;;;0.95;0.65;;;;;;;;;;5006964;28;20022;-47
2022/05/25 14:53:12;;;;;;;1.08;0.68;;;;;;;;;;5013476;28;20047;-47
2022/05/25 14:55:47;;;;;;;1.27;1.02;;;;;;;;;;5013356;28;20065;-45
2022/05/25 14:58:13;;;;;;;1.30;0.50;;;;;;;;;;5013863;28;20340;-47
2022/05/25 15:00:41;;;;;;;0.88;0.30;;;;;;;;;;5013089;28;20030;-45
2022/05/25 15:03:07;;;;;;;1.25;0.50;;;;;;;;;;5014071;28;20033;-46
2022/05/25 15:05:44;;;;;;;1.02;0.35;;;;;;;;;;5013479;28;20467;-46
2022/05/25 15:08:22;;;;;;;1.23;0.60;;;;;;;;;;5014133;28;20386;-45
2022/05/25 15:10:48;;;;;;;0.65;0.30;;;;;;;;;;5013007;28;20571;-46
2022/05/25 15:13:24;;;;;;;1.67;0.47;;;;;;;;;;5013667;28;20478;-46
2022/05/25 15:18:50;;;;;;;1.08;0.50;;;;;;;;;;5013603;28;20041;-46
2022/05/25 15:21:22;;;;;;;1.58;0.40;;;;;;;;;;5013634;28;20030;-45
2022/05/25 15:23:59;;;;;;;1.02;0.70;;;;;;;;;;5012911;28;20022;-47
2022/05/25 15:26:25;;;;;;;0.68;0.40;;;;;;;;;;5013408;28;20471;-45